createdAt,value
2022-11-12T00:01:09.953Z,45.45
2022-11-12T00:07:30.500Z,46.75
2022-11-12T00:13:51.369Z,49.03
2022-11-12T00:20:13.089Z,41.88
2022-11-12T00:26:33.837Z,52.63
2022-11-12T00:32:54.886Z,56.35
2022-11-12T00:39:15.559Z,47.13
2022-11-12T00:45:36.312Z,50.83
2022-11-12T00:51:57.230Z,52.60
2022-11-12T00:58:18.273Z,47.28
2022-11-12T01:04:39.278Z,46.95
2022-11-12T01:11:10.536Z,37.72
2022-11-12T01:17:31.813Z,40.88
2022-11-12T01:23:52.574Z,42.20
2022-11-12T01:30:13.716Z,38.80
2022-11-12T01:36:37.656Z,38.95
2022-11-12T01:42:58.557Z,40.28
2022-11-12T01:49:28.873Z,38.75
2022-11-12T01:55:50.047Z,36.17
2022-11-12T02:02:11.157Z,36.08
2022-11-12T02:08:33.659Z,32.67
2022-11-12T02:14:54.644Z,34.05
2022-11-12T02:21:19.983Z,30.88
2022-11-12T02:27:40.663Z,35.13
2022-11-12T02:34:01.619Z,33.67
2022-11-12T02:40:22.719Z,36.13
2022-11-12T02:46:43.537Z,35.22
2022-11-12T02:53:04.511Z,40.45
2022-11-12T02:59:25.432Z,41.53
2022-11-12T03:05:47.119Z,36.60
2022-11-12T03:12:08.083Z,40.15
2022-11-12T03:18:29.143Z,42.78
2022-11-12T03:24:50.372Z,42.00
2022-11-12T03:31:12.231Z,41.28
2022-11-12T03:37:33.042Z,44.67
2022-11-12T03:43:53.506Z,47.50
2022-11-12T03:50:15.621Z,37.22
2022-11-12T03:56:36.722Z,46.10
2022-11-12T04:02:58.246Z,38.38
2022-11-12T04:09:19.105Z,50.17
2022-11-12T04:15:40.134Z,44.80
2022-11-12T04:22:09.861Z,35.15
2022-11-12T04:28:30.480Z,46.28
2022-11-12T04:34:51.690Z,40.85
2022-11-12T04:41:31.026Z,29.95
2022-11-12T04:47:52.032Z,36.25
2022-11-12T04:54:12.886Z,33.17
2022-11-12T05:00:33.323Z,33.03
2022-11-12T05:06:56.032Z,30.30
2022-11-12T05:13:16.801Z,33.88
2022-11-12T05:19:37.716Z,27.05
2022-11-12T05:25:58.474Z,28.42
2022-11-12T05:32:19.438Z,29.58
2022-11-12T05:38:40.388Z,31.48
2022-11-12T05:45:01.332Z,28.85
2022-11-12T05:51:22.376Z,38.63
2022-11-12T05:57:43.205Z,34.58
2022-11-12T06:04:04.523Z,30.83
2022-11-12T06:10:25.443Z,25.73
2022-11-12T06:16:46.382Z,25.58
2022-11-12T06:23:07.325Z,35.80
2022-11-12T06:29:28.486Z,31.58
2022-11-12T06:36:03.359Z,35.28
2022-11-12T06:42:24.299Z,26.90
2022-11-12T06:48:45.465Z,35.05
2022-11-12T06:55:06.659Z,34.85
2022-11-12T07:01:27.640Z,30.65
2022-11-12T07:07:48.499Z,41.83
2022-11-12T07:14:09.497Z,30.75
2022-11-12T07:20:30.639Z,33.45
2022-11-12T07:26:51.073Z,30.25
2022-11-12T07:33:11.943Z,28.92
2022-11-12T07:39:32.700Z,42.38
2022-11-12T07:45:54.034Z,27.13
2022-11-12T07:52:14.916Z,29.67
2022-11-12T07:58:35.699Z,31.75
2022-11-12T08:04:56.489Z,22.13
2022-11-12T08:11:17.453Z,23.92
2022-11-12T08:17:40.982Z,30.85
2022-11-12T08:24:01.918Z,31.65
2022-11-12T08:30:22.739Z,43.92
2022-11-12T08:36:43.643Z,28.90
2022-11-12T08:43:09.761Z,31.02
2022-11-12T08:49:31.154Z,29.17
2022-11-12T08:55:56.535Z,25.90
2022-11-12T09:02:17.065Z,30.73
2022-11-12T09:08:38.321Z,27.38
2022-11-12T09:15:09.694Z,36.08
2022-11-12T09:21:39.586Z,42.10
2022-11-12T09:28:16.629Z,39.50
2022-11-12T09:34:37.321Z,32.97
2022-11-12T09:41:27.340Z,35.45
2022-11-12T09:47:58.037Z,35.13
2022-11-12T09:54:21.958Z,33.85
2022-11-12T10:00:49.716Z,24.65
2022-11-12T10:07:22.451Z,23.55
2022-11-12T10:14:15.345Z,29.48
2022-11-12T10:20:55.164Z,25.75
2022-11-12T10:27:19.808Z,33.00
2022-11-12T10:33:40.437Z,23.98
2022-11-12T10:40:21.153Z,26.88
2022-11-12T10:46:42.064Z,26.83
2022-11-12T10:53:06.082Z,28.38
2022-11-12T10:59:26.890Z,25.25
2022-11-12T11:05:52.645Z,38.08
2022-11-12T11:12:27.628Z,28.42
2022-11-12T11:19:02.593Z,20.42
2022-11-12T11:25:30.029Z,21.13
2022-11-12T11:32:11.494Z,39.13
2022-11-12T11:38:42.109Z,48.50
2022-11-12T11:45:24.706Z,32.40
2022-11-12T11:51:45.375Z,27.38
2022-11-12T11:58:24.423Z,12.02
2022-11-12T12:04:45.143Z,14.07
2022-11-12T12:11:14.347Z,20.33
2022-11-12T12:17:40.981Z,18.88
2022-11-12T12:24:03.833Z,13.80
2022-11-12T12:36:52.378Z,18.27
2022-11-12T12:43:23.130Z,17.67
2022-11-12T12:49:46.285Z,16.85
2022-11-12T12:56:23.878Z,19.98
2022-11-12T13:02:46.424Z,19.52
2022-11-12T13:09:24.784Z,15.45
2022-11-12T13:15:56.247Z,15.52
2022-11-12T13:22:20.118Z,21.88
2022-11-12T13:29:19.556Z,15.25
2022-11-12T13:35:40.941Z,20.75
2022-11-12T13:42:27.807Z,20.67
2022-11-12T13:48:59.819Z,16.05
2022-11-12T13:55:22.821Z,15.13
2022-11-12T14:01:44.458Z,13.17
2022-11-12T14:08:39.160Z,24.45
2022-11-12T14:21:26.924Z,14.07
2022-11-12T14:27:50.481Z,15.32
2022-11-12T14:34:22.344Z,13.63
2022-11-12T14:40:50.772Z,12.48
2022-11-12T14:47:11.789Z,11.52
2022-11-12T14:53:42.401Z,29.10
2022-11-12T15:00:22.185Z,23.00
2022-11-12T15:06:43.072Z,18.70
2022-11-12T15:13:15.056Z,18.80
2022-11-12T15:19:36.001Z,29.35
2022-11-12T15:26:00.926Z,33.70
2022-11-12T15:32:21.583Z,28.20
2022-11-12T15:38:48.925Z,33.03
2022-11-12T15:45:19.985Z,28.73
2022-11-12T15:51:40.376Z,34.30
2022-11-12T15:58:00.837Z,38.05
2022-11-12T16:04:21.640Z,83.03
2022-11-12T16:10:45.343Z,38.22
2022-11-12T16:17:09.946Z,47.38
2022-11-12T16:23:31.201Z,32.88
2022-11-12T16:29:52.209Z,42.72
2022-11-12T16:36:14.858Z,55.33
2022-11-12T16:42:36.059Z,53.97
2022-11-12T16:48:57.352Z,52.67
2022-11-12T16:55:17.969Z,48.83
2022-11-12T17:01:38.737Z,48.13
2022-11-12T17:07:59.834Z,48.20
2022-11-12T17:14:25.526Z,46.80
2022-11-12T17:20:51.374Z,45.78
2022-11-12T17:27:12.477Z,61.50
2022-11-12T17:33:37.732Z,47.00
2022-11-12T17:39:58.349Z,59.50
2022-11-12T17:46:19.147Z,45.70
2022-11-12T17:52:39.954Z,48.13
2022-11-12T17:59:02.375Z,103.57
2022-11-12T18:05:23.415Z,100.25
2022-11-12T18:11:54.490Z,124.13
2022-11-12T18:18:15.289Z,99.43
2022-11-12T18:24:36.456Z,89.07
2022-11-12T18:31:04.754Z,105.70
2022-11-12T18:37:25.686Z,105.43
2022-11-12T18:43:46.399Z,109.43
2022-11-12T18:50:08.975Z,110.32
2022-11-12T18:56:29.756Z,95.47
2022-11-12T19:02:51.057Z,93.05
2022-11-12T19:09:12.117Z,100.93
2022-11-12T19:15:34.454Z,107.55
2022-11-12T19:21:55.438Z,112.88
2022-11-12T19:28:16.437Z,112.20
2022-11-12T19:34:37.424Z,115.47
2022-11-12T19:41:17.759Z,99.97
2022-11-12T19:47:40.832Z,108.63
2022-11-12T19:54:02.296Z,108.43
2022-11-12T20:00:23.323Z,92.88
2022-11-12T20:06:44.148Z,100.03
2022-11-12T20:13:05.078Z,105.50
2022-11-12T20:19:26.999Z,119.10
2022-11-12T20:25:48.124Z,98.85
2022-11-12T20:32:08.939Z,99.63
2022-11-12T20:38:30.053Z,93.10
2022-11-12T20:44:51.329Z,96.25
2022-11-12T20:51:24.196Z,92.63
2022-11-12T20:57:45.654Z,91.72
2022-11-12T21:04:06.275Z,108.32
2022-11-12T21:10:27.333Z,109.00
2022-11-12T21:16:47.918Z,108.15
2022-11-12T21:23:09.156Z,100.20
2022-11-12T21:29:29.966Z,113.15
2022-11-12T21:35:54.120Z,102.57
2022-11-12T21:42:15.078Z,102.65
2022-11-12T21:48:36.015Z,104.57
2022-11-12T21:54:57.137Z,83.20
2022-11-12T22:01:23.441Z,99.47
2022-11-12T22:07:44.347Z,105.40
2022-11-12T22:14:05.340Z,103.55
2022-11-12T22:20:26.415Z,104.15
2022-11-12T22:26:47.455Z,115.25
2022-11-12T22:33:08.000Z,108.60
2022-11-12T22:39:28.925Z,105.65
2022-11-12T22:45:49.749Z,101.63
2022-11-12T22:52:10.498Z,98.13
2022-11-12T22:58:34.761Z,103.13
2022-11-12T23:04:55.600Z,113.45
2022-11-12T23:11:19.465Z,105.18
2022-11-12T23:17:40.168Z,99.95
2022-11-12T23:24:00.794Z,93.60
2022-11-12T23:30:26.350Z,91.68
2022-11-12T23:36:47.214Z,86.10
2022-11-12T23:43:08.104Z,99.10
2022-11-12T23:49:28.861Z,98.72
2022-11-12T23:55:49.810Z,95.82
